sensor_id;sensor_type;location;lat;lon;timestamp;temperature;humidity
44705;DHT22;30431;48.520;9.046;2023-11-19T00:00:39;8.70;99.90
44705;DHT22;30431;48.520;9.046;2023-11-19T00:03:06;8.70;99.90
44705;DHT22;30431;48.520;9.046;2023-11-19T00:05:35;8.70;99.90
44705;DHT22;30431;48.520;9.046;2023-11-19T00:08:04;8.70;99.90
44705;DHT22;30431;48.520;9.046;2023-11-19T00:10:32;8.70;99.90
44705;DHT22;30431;48.520;9.046;2023-11-19T00:12:59;8.60;99.90
44705;DHT22;30431;48.520;9.046;2023-11-19T00:15:26;8.70;99.90
44705;DHT22;30431;48.520;9.046;2023-11-19T00:17:53;8.70;99.90
44705;DHT22;30431;48.520;9.046;2023-11-19T00:20:22;8.70;99.90
44705;DHT22;30431;48.520;9.046;2023-11-19T00:22:51;8.70;99.90
44705;DHT22;30431;48.520;9.046;2023-11-19T00:25:21;8.70;99.90
44705;DHT22;30431;48.520;9.046;2023-11-19T00:27:52;8.80;99.90
44705;DHT22;30431;48.520;9.046;2023-11-19T00:30:20;8.80;99.90
44705;DHT22;30431;48.520;9.046;2023-11-19T00:32:47;8.80;99.90
44705;DHT22;30431;48.520;9.046;2023-11-19T00:35:14;8.80;99.90
44705;DHT22;30431;48.520;9.046;2023-11-19T00:37:42;8.80;99.90
44705;DHT22;30431;48.520;9.046;2023-11-19T00:40:15;8.80;99.90
44705;DHT22;30431;48.520;9.046;2023-11-19T00:42:50;8.80;99.90
44705;DHT22;30431;48.520;9.046;2023-11-19T00:45:19;8.90;99.90
44705;DHT22;30431;48.520;9.046;2023-11-19T00:47:46;8.90;99.90
44705;DHT22;30431;48.520;9.046;2023-11-19T00:50:14;8.90;99.90
44705;DHT22;30431;48.520;9.046;2023-11-19T00:52:41;8.90;99.90
44705;DHT22;30431;48.520;9.046;2023-11-19T00:55:10;8.90;99.90
44705;DHT22;30431;48.520;9.046;2023-11-19T00:57:39;9.00;99.90
44705;DHT22;30431;48.520;9.046;2023-11-19T01:00:10;9.00;99.90
44705;DHT22;30431;48.520;9.046;2023-11-19T01:02:48;9.00;99.90
44705;DHT22;30431;48.520;9.046;2023-11-19T01:05:19;9.00;99.90
44705;DHT22;30431;48.520;9.046;2023-11-19T01:07:52;9.00;99.90
44705;DHT22;30431;48.520;9.046;2023-11-19T01:10:22;9.00;99.90
44705;DHT22;30431;48.520;9.046;2023-11-19T01:12:49;9.10;99.90
44705;DHT22;30431;48.520;9.046;2023-11-19T01:15:18;9.10;99.90
44705;DHT22;30431;48.520;9.046;2023-11-19T01:17:46;9.10;99.90
44705;DHT22;30431;48.520;9.046;2023-11-19T01:20:16;9.20;99.90
44705;DHT22;30431;48.520;9.046;2023-11-19T01:22:44;9.20;99.90
44705;DHT22;30431;48.520;9.046;2023-11-19T01:25:13;9.20;99.90
44705;DHT22;30431;48.520;9.046;2023-11-19T01:27:40;9.20;99.90
44705;DHT22;30431;48.520;9.046;2023-11-19T01:30:08;9.20;99.90
44705;DHT22;30431;48.520;9.046;2023-11-19T01:32:40;9.30;99.90
44705;DHT22;30431;48.520;9.046;2023-11-19T01:35:09;9.20;99.90
44705;DHT22;30431;48.520;9.046;2023-11-19T01:37:37;9.20;99.90
44705;DHT22;30431;48.520;9.046;2023-11-19T01:40:06;9.30;99.90
44705;DHT22;30431;48.520;9.046;2023-11-19T01:42:38;9.20;99.90
44705;DHT22;30431;48.520;9.046;2023-11-19T01:45:07;9.30;99.90
44705;DHT22;30431;48.520;9.046;2023-11-19T01:47:38;9.20;99.90
44705;DHT22;30431;48.520;9.046;2023-11-19T01:50:06;9.30;99.90
44705;DHT22;30431;48.520;9.046;2023-11-19T01:52:37;9.30;99.90
44705;DHT22;30431;48.520;9.046;2023-11-19T01:55:09;9.30;99.90
44705;DHT22;30431;48.520;9.046;2023-11-19T01:57:36;9.30;99.90
44705;DHT22;30431;48.520;9.046;2023-11-19T02:00:07;9.30;99.90
44705;DHT22;30431;48.520;9.046;2023-11-19T02:02:43;9.40;99.90
44705;DHT22;30431;48.520;9.046;2023-11-19T02:05:12;9.40;99.90
44705;DHT22;30431;48.520;9.046;2023-11-19T02:07:40;9.40;99.90
44705;DHT22;30431;48.520;9.046;2023-11-19T02:10:09;9.40;99.90
44705;DHT22;30431;48.520;9.046;2023-11-19T02:12:41;9.50;99.90
44705;DHT22;30431;48.520;9.046;2023-11-19T02:15:11;9.50;99.90
44705;DHT22;30431;48.520;9.046;2023-11-19T02:17:38;9.50;99.90
44705;DHT22;30431;48.520;9.046;2023-11-19T02:20:08;9.50;99.90
44705;DHT22;30431;48.520;9.046;2023-11-19T02:22:39;9.60;99.90
44705;DHT22;30431;48.520;9.046;2023-11-19T02:25:33;9.60;99.90
44705;DHT22;30431;48.520;9.046;2023-11-19T02:28:03;9.60;99.90
44705;DHT22;30431;48.520;9.046;2023-11-19T02:30:36;9.60;99.90
44705;DHT22;30431;48.520;9.046;2023-11-19T02:33:06;9.60;99.90
44705;DHT22;30431;48.520;9.046;2023-11-19T02:35:35;9.70;99.90
44705;DHT22;30431;48.520;9.046;2023-11-19T02:38:05;9.70;99.90
44705;DHT22;30431;48.520;9.046;2023-11-19T02:40:35;9.70;99.90
44705;DHT22;30431;48.520;9.046;2023-11-19T02:43:05;9.70;99.90
44705;DHT22;30431;48.520;9.046;2023-11-19T02:45:32;9.70;99.90
44705;DHT22;30431;48.520;9.046;2023-11-19T02:47:59;9.70;99.90
44705;DHT22;30431;48.520;9.046;2023-11-19T02:50:29;9.70;99.90
44705;DHT22;30431;48.520;9.046;2023-11-19T02:52:57;9.70;99.90
44705;DHT22;30431;48.520;9.046;2023-11-19T02:55:27;9.70;99.90
44705;DHT22;30431;48.520;9.046;2023-11-19T02:57:59;9.70;99.90
44705;DHT22;30431;48.520;9.046;2023-11-19T03:00:35;9.70;99.90
44705;DHT22;30431;48.520;9.046;2023-11-19T03:03:14;9.70;99.90
44705;DHT22;30431;48.520;9.046;2023-11-19T03:05:49;9.70;99.90
44705;DHT22;30431;48.520;9.046;2023-11-19T03:08:16;9.80;99.90
44705;DHT22;30431;48.520;9.046;2023-11-19T03:10:46;9.80;99.90
44705;DHT22;30431;48.520;9.046;2023-11-19T03:13:14;9.80;99.90
44705;DHT22;30431;48.520;9.046;2023-11-19T03:15:43;9.80;99.90
44705;DHT22;30431;48.520;9.046;2023-11-19T03:18:13;9.80;99.90
44705;DHT22;30431;48.520;9.046;2023-11-19T03:20:40;9.80;99.90
44705;DHT22;30431;48.520;9.046;2023-11-19T03:23:09;9.80;99.90
44705;DHT22;30431;48.520;9.046;2023-11-19T03:25:39;9.90;99.90
44705;DHT22;30431;48.520;9.046;2023-11-19T03:28:06;9.80;99.90
44705;DHT22;30431;48.520;9.046;2023-11-19T03:30:33;9.90;99.90
44705;DHT22;30431;48.520;9.046;2023-11-19T03:33:01;9.90;99.90
44705;DHT22;30431;48.520;9.046;2023-11-19T03:35:33;10.00;99.90
44705;DHT22;30431;48.520;9.046;2023-11-19T03:38:01;10.00;99.90
44705;DHT22;30431;48.520;9.046;2023-11-19T03:40:28;10.00;99.90
44705;DHT22;30431;48.520;9.046;2023-11-19T03:42:56;10.00;99.90
44705;DHT22;30431;48.520;9.046;2023-11-19T03:45:25;10.00;99.90
44705;DHT22;30431;48.520;9.046;2023-11-19T03:47:52;10.00;99.90
44705;DHT22;30431;48.520;9.046;2023-11-19T03:50:22;10.00;99.90
44705;DHT22;30431;48.520;9.046;2023-11-19T03:52:49;10.00;99.90
44705;DHT22;30431;48.520;9.046;2023-11-19T03:55:16;10.00;99.90
44705;DHT22;30431;48.520;9.046;2023-11-19T03:57:43;10.00;99.90
44705;DHT22;30431;48.520;9.046;2023-11-19T04:00:10;10.00;99.90
44705;DHT22;30431;48.520;9.046;2023-11-19T04:02:41;10.00;99.90
44705;DHT22;30431;48.520;9.046;2023-11-19T04:05:10;10.00;99.90
44705;DHT22;30431;48.520;9.046;2023-11-19T04:07:40;10.10;99.90
44705;DHT22;30431;48.520;9.046;2023-11-19T04:10:07;10.10;99.90
44705;DHT22;30431;48.520;9.046;2023-11-19T04:12:34;10.10;99.90
44705;DHT22;30431;48.520;9.046;2023-11-19T04:15:01;10.10;99.90
44705;DHT22;30431;48.520;9.046;2023-11-19T04:17:31;10.20;99.90
44705;DHT22;30431;48.520;9.046;2023-11-19T04:20:00;10.20;99.90
44705;DHT22;30431;48.520;9.046;2023-11-19T04:22:30;10.20;99.90
44705;DHT22;30431;48.520;9.046;2023-11-19T04:24:58;10.30;99.90
44705;DHT22;30431;48.520;9.046;2023-11-19T04:27:25;10.30;99.90
44705;DHT22;30431;48.520;9.046;2023-11-19T04:29:54;10.40;99.90
44705;DHT22;30431;48.520;9.046;2023-11-19T04:32:23;10.40;99.90
44705;DHT22;30431;48.520;9.046;2023-11-19T04:34:52;10.40;99.90
44705;DHT22;30431;48.520;9.046;2023-11-19T04:37:19;10.40;99.90
44705;DHT22;30431;48.520;9.046;2023-11-19T04:39:46;10.40;99.90
44705;DHT22;30431;48.520;9.046;2023-11-19T04:42:13;10.40;99.90
44705;DHT22;30431;48.520;9.046;2023-11-19T04:44:48;10.50;99.90
44705;DHT22;30431;48.520;9.046;2023-11-19T04:47:18;10.50;99.90
44705;DHT22;30431;48.520;9.046;2023-11-19T04:49:47;10.50;99.90
44705;DHT22;30431;48.520;9.046;2023-11-19T04:52:14;10.60;99.90
44705;DHT22;30431;48.520;9.046;2023-11-19T04:54:44;10.60;99.90
44705;DHT22;30431;48.520;9.046;2023-11-19T04:57:11;10.50;99.90
44705;DHT22;30431;48.520;9.046;2023-11-19T04:59:42;10.60;99.90
44705;DHT22;30431;48.520;9.046;2023-11-19T05:02:09;10.60;99.90
44705;DHT22;30431;48.520;9.046;2023-11-19T05:04:36;10.60;99.90
44705;DHT22;30431;48.520;9.046;2023-11-19T05:07:06;10.60;99.90
44705;DHT22;30431;48.520;9.046;2023-11-19T05:09:36;10.70;99.90
44705;DHT22;30431;48.520;9.046;2023-11-19T05:12:03;10.60;99.90
44705;DHT22;30431;48.520;9.046;2023-11-19T05:14:30;10.70;99.90
44705;DHT22;30431;48.520;9.046;2023-11-19T05:17:02;10.70;99.90
44705;DHT22;30431;48.520;9.046;2023-11-19T05:19:29;10.80;99.90
44705;DHT22;30431;48.520;9.046;2023-11-19T05:21:58;10.80;99.90
44705;DHT22;30431;48.520;9.046;2023-11-19T05:24:25;10.90;99.90
44705;DHT22;30431;48.520;9.046;2023-11-19T05:26:55;10.90;99.90
44705;DHT22;30431;48.520;9.046;2023-11-19T05:29:22;11.00;99.90
44705;DHT22;30431;48.520;9.046;2023-11-19T05:31:52;11.10;99.90
44705;DHT22;30431;48.520;9.046;2023-11-19T05:34:19;11.20;99.90
44705;DHT22;30431;48.520;9.046;2023-11-19T05:36:46;11.30;99.90
44705;DHT22;30431;48.520;9.046;2023-11-19T05:39:13;11.30;99.90
44705;DHT22;30431;48.520;9.046;2023-11-19T05:41:42;11.30;99.90
44705;DHT22;30431;48.520;9.046;2023-11-19T05:44:11;11.40;99.90
44705;DHT22;30431;48.520;9.046;2023-11-19T05:46:40;11.40;99.90
44705;DHT22;30431;48.520;9.046;2023-11-19T05:49:12;11.40;99.90
44705;DHT22;30431;48.520;9.046;2023-11-19T05:51:40;11.40;99.90
44705;DHT22;30431;48.520;9.046;2023-11-19T05:54:08;11.50;99.90
44705;DHT22;30431;48.520;9.046;2023-11-19T05:56:36;11.40;99.90
44705;DHT22;30431;48.520;9.046;2023-11-19T05:59:03;11.40;99.90
44705;DHT22;30431;48.520;9.046;2023-11-19T06:01:34;11.40;99.90
44705;DHT22;30431;48.520;9.046;2023-11-19T06:04:04;11.50;99.90
44705;DHT22;30431;48.520;9.046;2023-11-19T06:06:31;11.50;99.90
44705;DHT22;30431;48.520;9.046;2023-11-19T06:08:58;11.50;99.90
44705;DHT22;30431;48.520;9.046;2023-11-19T06:11:39;11.50;99.90
44705;DHT22;30431;48.520;9.046;2023-11-19T06:14:06;11.60;99.90
44705;DHT22;30431;48.520;9.046;2023-11-19T06:16:34;11.60;99.90
44705;DHT22;30431;48.520;9.046;2023-11-19T06:19:01;11.60;99.90
44705;DHT22;30431;48.520;9.046;2023-11-19T06:21:30;11.60;99.90
44705;DHT22;30431;48.520;9.046;2023-11-19T06:23:59;11.70;99.90
44705;DHT22;30431;48.520;9.046;2023-11-19T06:26:27;11.70;99.90
44705;DHT22;30431;48.520;9.046;2023-11-19T06:28:56;11.70;99.90
44705;DHT22;30431;48.520;9.046;2023-11-19T06:31:25;11.70;99.90
44705;DHT22;30431;48.520;9.046;2023-11-19T06:33:53;11.60;99.90
44705;DHT22;30431;48.520;9.046;2023-11-19T06:36:22;11.70;99.90
44705;DHT22;30431;48.520;9.046;2023-11-19T06:38:49;11.70;99.90
44705;DHT22;30431;48.520;9.046;2023-11-19T06:41:19;11.70;99.90
44705;DHT22;30431;48.520;9.046;2023-11-19T06:43:45;11.70;99.90
44705;DHT22;30431;48.520;9.046;2023-11-19T06:46:16;11.70;99.90
44705;DHT22;30431;48.520;9.046;2023-11-19T06:48:44;11.80;99.90
44705;DHT22;30431;48.520;9.046;2023-11-19T06:51:15;11.70;99.90
44705;DHT22;30431;48.520;9.046;2023-11-19T06:53:42;11.70;99.90
44705;DHT22;30431;48.520;9.046;2023-11-19T06:56:21;11.80;99.90
44705;DHT22;30431;48.520;9.046;2023-11-19T06:58:49;11.80;99.90
44705;DHT22;30431;48.520;9.046;2023-11-19T07:01:19;11.80;99.90
44705;DHT22;30431;48.520;9.046;2023-11-19T07:03:46;11.80;99.90
44705;DHT22;30431;48.520;9.046;2023-11-19T07:06:14;11.80;99.90
44705;DHT22;30431;48.520;9.046;2023-11-19T07:08:44;11.90;99.90
44705;DHT22;30431;48.520;9.046;2023-11-19T07:11:16;11.90;99.90
44705;DHT22;30431;48.520;9.046;2023-11-19T07:13:46;11.90;99.90
44705;DHT22;30431;48.520;9.046;2023-11-19T07:16:14;11.90;99.90
44705;DHT22;30431;48.520;9.046;2023-11-19T07:18:41;11.90;99.90
44705;DHT22;30431;48.520;9.046;2023-11-19T07:21:10;11.90;99.90
44705;DHT22;30431;48.520;9.046;2023-11-19T07:23:37;12.00;99.90
44705;DHT22;30431;48.520;9.046;2023-11-19T07:26:07;12.00;99.90
44705;DHT22;30431;48.520;9.046;2023-11-19T07:28:35;12.00;99.90
44705;DHT22;30431;48.520;9.046;2023-11-19T07:31:02;12.00;99.90
44705;DHT22;30431;48.520;9.046;2023-11-19T07:33:34;12.10;99.90
44705;DHT22;30431;48.520;9.046;2023-11-19T07:36:04;12.00;99.90
44705;DHT22;30431;48.520;9.046;2023-11-19T07:38:36;12.10;99.90
44705;DHT22;30431;48.520;9.046;2023-11-19T07:41:09;12.20;99.90
44705;DHT22;30431;48.520;9.046;2023-11-19T07:43:41;12.20;99.90
44705;DHT22;30431;48.520;9.046;2023-11-19T07:46:14;12.20;99.90
44705;DHT22;30431;48.520;9.046;2023-11-19T07:48:45;12.30;99.90
44705;DHT22;30431;48.520;9.046;2023-11-19T07:51:16;12.30;99.90
44705;DHT22;30431;48.520;9.046;2023-11-19T07:53:43;12.40;99.90
44705;DHT22;30431;48.520;9.046;2023-11-19T07:56:10;12.40;99.90
44705;DHT22;30431;48.520;9.046;2023-11-19T07:58:39;12.40;99.90
44705;DHT22;30431;48.520;9.046;2023-11-19T08:01:06;12.40;99.90
44705;DHT22;30431;48.520;9.046;2023-11-19T08:03:33;12.50;99.90
44705;DHT22;30431;48.520;9.046;2023-11-19T08:06:05;12.50;99.90
44705;DHT22;30431;48.520;9.046;2023-11-19T08:08:33;12.50;99.90
44705;DHT22;30431;48.520;9.046;2023-11-19T08:11:01;12.50;99.90
44705;DHT22;30431;48.520;9.046;2023-11-19T08:13:28;12.60;99.90
44705;DHT22;30431;48.520;9.046;2023-11-19T08:16:00;12.50;99.90
44705;DHT22;30431;48.520;9.046;2023-11-19T08:18:30;12.60;99.90
44705;DHT22;30431;48.520;9.046;2023-11-19T08:21:02;12.60;99.90
44705;DHT22;30431;48.520;9.046;2023-11-19T08:23:36;12.60;99.90
44705;DHT22;30431;48.520;9.046;2023-11-19T08:26:05;12.60;99.90
44705;DHT22;30431;48.520;9.046;2023-11-19T08:28:32;12.60;99.90
44705;DHT22;30431;48.520;9.046;2023-11-19T08:31:02;12.70;99.90
44705;DHT22;30431;48.520;9.046;2023-11-19T08:33:34;12.70;99.90
44705;DHT22;30431;48.520;9.046;2023-11-19T08:36:02;12.80;99.90
44705;DHT22;30431;48.520;9.046;2023-11-19T08:38:30;12.80;99.90
44705;DHT22;30431;48.520;9.046;2023-11-19T08:40:58;12.80;99.90
44705;DHT22;30431;48.520;9.046;2023-11-19T08:43:27;12.90;99.90
44705;DHT22;30431;48.520;9.046;2023-11-19T08:45:54;13.00;99.90
44705;DHT22;30431;48.520;9.046;2023-11-19T08:48:23;13.20;99.90
44705;DHT22;30431;48.520;9.046;2023-11-19T08:50:50;13.30;99.90
44705;DHT22;30431;48.520;9.046;2023-11-19T08:53:20;13.40;99.90
44705;DHT22;30431;48.520;9.046;2023-11-19T08:55:48;13.60;99.90
44705;DHT22;30431;48.520;9.046;2023-11-19T08:58:16;13.70;99.90
44705;DHT22;30431;48.520;9.046;2023-11-19T09:00:43;13.80;99.90
44705;DHT22;30431;48.520;9.046;2023-11-19T09:03:10;14.00;99.90
44705;DHT22;30431;48.520;9.046;2023-11-19T09:05:38;14.00;99.90
44705;DHT22;30431;48.520;9.046;2023-11-19T09:08:06;14.10;99.90
44705;DHT22;30431;48.520;9.046;2023-11-19T09:10:33;14.20;99.90
44705;DHT22;30431;48.520;9.046;2023-11-19T09:13:00;14.20;99.90
44705;DHT22;30431;48.520;9.046;2023-11-19T09:15:27;14.40;99.90
44705;DHT22;30431;48.520;9.046;2023-11-19T09:17:54;14.50;99.50
44705;DHT22;30431;48.520;9.046;2023-11-19T09:20:21;14.40;99.20
44705;DHT22;30431;48.520;9.046;2023-11-19T09:22:50;14.40;99.00
44705;DHT22;30431;48.520;9.046;2023-11-19T09:25:18;14.40;99.00
44705;DHT22;30431;48.520;9.046;2023-11-19T09:27:45;14.50;99.00
44705;DHT22;30431;48.520;9.046;2023-11-19T09:30:12;14.40;99.10
44705;DHT22;30431;48.520;9.046;2023-11-19T09:32:39;14.50;99.90
44705;DHT22;30431;48.520;9.046;2023-11-19T09:35:08;14.60;99.30
44705;DHT22;30431;48.520;9.046;2023-11-19T09:37:35;14.80;98.70
44705;DHT22;30431;48.520;9.046;2023-11-19T09:40:05;15.00;98.00
44705;DHT22;30431;48.520;9.046;2023-11-19T09:42:44;15.10;97.80
44705;DHT22;30431;48.520;9.046;2023-11-19T09:45:17;15.10;97.80
44705;DHT22;30431;48.520;9.046;2023-11-19T09:47:47;15.10;97.50
44705;DHT22;30431;48.520;9.046;2023-11-19T09:50:19;15.10;97.30
44705;DHT22;30431;48.520;9.046;2023-11-19T09:52:47;15.20;97.40
44705;DHT22;30431;48.520;9.046;2023-11-19T09:55:14;15.30;97.00
44705;DHT22;30431;48.520;9.046;2023-11-19T09:57:42;15.20;97.20
44705;DHT22;30431;48.520;9.046;2023-11-19T10:00:12;15.20;97.30
44705;DHT22;30431;48.520;9.046;2023-11-19T10:02:43;15.20;97.30
44705;DHT22;30431;48.520;9.046;2023-11-19T10:05:16;15.10;97.40
44705;DHT22;30431;48.520;9.046;2023-11-19T10:07:49;15.20;97.10
44705;DHT22;30431;48.520;9.046;2023-11-19T10:10:17;15.40;96.80
44705;DHT22;30431;48.520;9.046;2023-11-19T10:12:46;15.40;96.30
44705;DHT22;30431;48.520;9.046;2023-11-19T10:15:24;15.50;96.40
44705;DHT22;30431;48.520;9.046;2023-11-19T10:17:57;15.50;96.20
44705;DHT22;30431;48.520;9.046;2023-11-19T10:20:27;15.50;95.90
44705;DHT22;30431;48.520;9.046;2023-11-19T10:22:55;15.40;96.20
44705;DHT22;30431;48.520;9.046;2023-11-19T10:25:25;15.60;96.00
44705;DHT22;30431;48.520;9.046;2023-11-19T10:27:56;15.60;96.10
44705;DHT22;30431;48.520;9.046;2023-11-19T10:30:31;15.50;95.90
44705;DHT22;30431;48.520;9.046;2023-11-19T10:35:34;15.70;95.70
44705;DHT22;30431;48.520;9.046;2023-11-19T10:38:13;15.80;95.40
44705;DHT22;30431;48.520;9.046;2023-11-19T10:40:42;15.70;95.20
44705;DHT22;30431;48.520;9.046;2023-11-19T10:43:12;15.60;95.50
44705;DHT22;30431;48.520;9.046;2023-11-19T10:45:41;15.50;95.40
44705;DHT22;30431;48.520;9.046;2023-11-19T10:48:09;15.50;95.70
44705;DHT22;30431;48.520;9.046;2023-11-19T10:50:40;15.50;95.70
44705;DHT22;30431;48.520;9.046;2023-11-19T10:53:11;15.50;95.60
44705;DHT22;30431;48.520;9.046;2023-11-19T10:55:47;15.60;95.50
44705;DHT22;30431;48.520;9.046;2023-11-19T10:58:19;15.60;95.00
44705;DHT22;30431;48.520;9.046;2023-11-19T11:00:55;15.50;95.20
44705;DHT22;30431;48.520;9.046;2023-11-19T11:03:36;15.40;95.60
44705;DHT22;30431;48.520;9.046;2023-11-19T11:06:09;15.40;95.90
44705;DHT22;30431;48.520;9.046;2023-11-19T11:08:37;15.40;95.60
44705;DHT22;30431;48.520;9.046;2023-11-19T11:11:07;15.50;95.30
44705;DHT22;30431;48.520;9.046;2023-11-19T11:13:37;15.50;95.00
44705;DHT22;30431;48.520;9.046;2023-11-19T11:16:06;15.50;95.20
44705;DHT22;30431;48.520;9.046;2023-11-19T11:18:35;15.50;95.40
44705;DHT22;30431;48.520;9.046;2023-11-19T11:23:50;15.60;95.00
44705;DHT22;30431;48.520;9.046;2023-11-19T11:29:24;15.90;94.40
44705;DHT22;30431;48.520;9.046;2023-11-19T11:39:53;16.20;94.10
44705;DHT22;30431;48.520;9.046;2023-11-19T11:44:59;16.60;92.70
44705;DHT22;30431;48.520;9.046;2023-11-19T11:50:18;16.70;92.80
44705;DHT22;30431;48.520;9.046;2023-11-19T11:55:34;16.70;92.60
44705;DHT22;30431;48.520;9.046;2023-11-19T11:58:01;16.70;93.10
44705;DHT22;30431;48.520;9.046;2023-11-19T12:00:39;16.60;92.80
44705;DHT22;30431;48.520;9.046;2023-11-19T12:03:07;16.50;92.60
44705;DHT22;30431;48.520;9.046;2023-11-19T12:05:42;16.40;92.80
44705;DHT22;30431;48.520;9.046;2023-11-19T12:08:16;16.30;93.00
44705;DHT22;30431;48.520;9.046;2023-11-19T12:10:55;16.20;93.20
44705;DHT22;30431;48.520;9.046;2023-11-19T12:16:15;16.20;93.40
44705;DHT22;30431;48.520;9.046;2023-11-19T12:18:47;16.30;93.10
44705;DHT22;30431;48.520;9.046;2023-11-19T12:21:31;16.30;93.00
44705;DHT22;30431;48.520;9.046;2023-11-19T12:24:04;16.20;93.00
44705;DHT22;30431;48.520;9.046;2023-11-19T12:26:37;16.30;93.20
44705;DHT22;30431;48.520;9.046;2023-11-19T12:29:04;16.30;92.90
44705;DHT22;30431;48.520;9.046;2023-11-19T12:31:35;16.40;92.90
44705;DHT22;30431;48.520;9.046;2023-11-19T12:34:06;16.40;92.50
44705;DHT22;30431;48.520;9.046;2023-11-19T12:36:34;16.40;92.50
44705;DHT22;30431;48.520;9.046;2023-11-19T12:39:01;16.60;92.30
44705;DHT22;30431;48.520;9.046;2023-11-19T12:41:31;16.70;92.30
44705;DHT22;30431;48.520;9.046;2023-11-19T12:44:11;16.70;91.90
44705;DHT22;30431;48.520;9.046;2023-11-19T12:46:39;16.60;91.80
44705;DHT22;30431;48.520;9.046;2023-11-19T12:49:06;16.50;91.30
44705;DHT22;30431;48.520;9.046;2023-11-19T12:51:38;16.40;91.00
44705;DHT22;30431;48.520;9.046;2023-11-19T12:54:07;16.20;91.10
44705;DHT22;30431;48.520;9.046;2023-11-19T12:56:35;16.10;91.20
44705;DHT22;30431;48.520;9.046;2023-11-19T12:59:11;16.10;91.20
44705;DHT22;30431;48.520;9.046;2023-11-19T13:01:54;16.30;91.40
44705;DHT22;30431;48.520;9.046;2023-11-19T13:04:30;16.50;90.50
44705;DHT22;30431;48.520;9.046;2023-11-19T13:07:20;16.60;90.10
44705;DHT22;30431;48.520;9.046;2023-11-19T13:09:47;16.60;90.30
44705;DHT22;30431;48.520;9.046;2023-11-19T13:12:15;16.60;90.30
44705;DHT22;30431;48.520;9.046;2023-11-19T13:14:45;16.60;90.70
44705;DHT22;30431;48.520;9.046;2023-11-19T13:17:14;16.50;90.20
44705;DHT22;30431;48.520;9.046;2023-11-19T13:19:41;16.40;90.30
44705;DHT22;30431;48.520;9.046;2023-11-19T13:22:08;16.30;90.20
44705;DHT22;30431;48.520;9.046;2023-11-19T13:24:37;16.30;89.80
44705;DHT22;30431;48.520;9.046;2023-11-19T13:27:07;16.20;88.00
44705;DHT22;30431;48.520;9.046;2023-11-19T13:29:34;16.20;88.70
44705;DHT22;30431;48.520;9.046;2023-11-19T13:32:04;16.30;89.60
44705;DHT22;30431;48.520;9.046;2023-11-19T13:34:32;16.40;88.20
44705;DHT22;30431;48.520;9.046;2023-11-19T13:36:59;16.50;88.50
44705;DHT22;30431;48.520;9.046;2023-11-19T13:39:28;16.60;89.00
44705;DHT22;30431;48.520;9.046;2023-11-19T13:41:56;16.70;89.40
44705;DHT22;30431;48.520;9.046;2023-11-19T13:44:27;16.70;89.30
44705;DHT22;30431;48.520;9.046;2023-11-19T13:46:54;16.70;88.70
44705;DHT22;30431;48.520;9.046;2023-11-19T13:49:29;16.80;88.90
44705;DHT22;30431;48.520;9.046;2023-11-19T13:51:59;16.70;87.90
44705;DHT22;30431;48.520;9.046;2023-11-19T13:54:26;16.70;88.10
44705;DHT22;30431;48.520;9.046;2023-11-19T13:57:00;16.60;88.50
44705;DHT22;30431;48.520;9.046;2023-11-19T13:59:27;16.60;87.90
44705;DHT22;30431;48.520;9.046;2023-11-19T14:01:54;16.40;89.30
44705;DHT22;30431;48.520;9.046;2023-11-19T14:04:21;16.20;89.20
44705;DHT22;30431;48.520;9.046;2023-11-19T14:06:49;16.00;89.20
44705;DHT22;30431;48.520;9.046;2023-11-19T14:09:16;15.90;89.00
44705;DHT22;30431;48.520;9.046;2023-11-19T14:11:45;16.00;89.20
44705;DHT22;30431;48.520;9.046;2023-11-19T14:14:12;15.90;89.50
44705;DHT22;30431;48.520;9.046;2023-11-19T14:16:39;15.90;90.00
44705;DHT22;30431;48.520;9.046;2023-11-19T14:19:08;15.80;90.20
44705;DHT22;30431;48.520;9.046;2023-11-19T14:21:35;15.90;90.00
44705;DHT22;30431;48.520;9.046;2023-11-19T14:24:03;15.90;89.60
44705;DHT22;30431;48.520;9.046;2023-11-19T14:26:30;15.80;90.10
44705;DHT22;30431;48.520;9.046;2023-11-19T14:28:57;15.60;90.30
44705;DHT22;30431;48.520;9.046;2023-11-19T14:31:27;15.40;90.60
44705;DHT22;30431;48.520;9.046;2023-11-19T14:33:57;15.20;90.80
44705;DHT22;30431;48.520;9.046;2023-11-19T14:36:24;15.00;91.20
44705;DHT22;30431;48.520;9.046;2023-11-19T14:38:51;15.00;91.50
44705;DHT22;30431;48.520;9.046;2023-11-19T14:41:20;14.90;91.60
44705;DHT22;30431;48.520;9.046;2023-11-19T14:43:47;14.90;91.60
44705;DHT22;30431;48.520;9.046;2023-11-19T14:46:14;15.00;91.60
44705;DHT22;30431;48.520;9.046;2023-11-19T14:48:44;15.00;91.70
44705;DHT22;30431;48.520;9.046;2023-11-19T14:51:11;15.00;91.70
44705;DHT22;30431;48.520;9.046;2023-11-19T14:53:39;14.90;92.00
44705;DHT22;30431;48.520;9.046;2023-11-19T14:56:11;14.90;92.00
44705;DHT22;30431;48.520;9.046;2023-11-19T14:58:42;15.00;92.10
44705;DHT22;30431;48.520;9.046;2023-11-19T15:01:12;15.00;92.00
44705;DHT22;30431;48.520;9.046;2023-11-19T15:03:39;15.10;91.90
44705;DHT22;30431;48.520;9.046;2023-11-19T15:06:09;15.10;91.90
44705;DHT22;30431;48.520;9.046;2023-11-19T15:08:38;15.00;91.70
44705;DHT22;30431;48.520;9.046;2023-11-19T15:11:05;15.00;91.90
44705;DHT22;30431;48.520;9.046;2023-11-19T15:13:33;14.90;91.90
44705;DHT22;30431;48.520;9.046;2023-11-19T15:16:00;14.90;91.90
44705;DHT22;30431;48.520;9.046;2023-11-19T15:18:31;14.90;91.00
44705;DHT22;30431;48.520;9.046;2023-11-19T15:21:00;14.80;91.10
44705;DHT22;30431;48.520;9.046;2023-11-19T15:23:27;14.70;91.20
44705;DHT22;30431;48.520;9.046;2023-11-19T15:25:56;14.60;91.40
44705;DHT22;30431;48.520;9.046;2023-11-19T15:28:24;14.60;91.70
44705;DHT22;30431;48.520;9.046;2023-11-19T15:30:53;14.50;91.80
44705;DHT22;30431;48.520;9.046;2023-11-19T15:33:23;14.40;92.10
44705;DHT22;30431;48.520;9.046;2023-11-19T15:35:50;14.30;92.20
44705;DHT22;30431;48.520;9.046;2023-11-19T15:38:17;14.20;92.20
44705;DHT22;30431;48.520;9.046;2023-11-19T15:40:44;14.10;92.50
44705;DHT22;30431;48.520;9.046;2023-11-19T15:43:13;14.00;92.90
44705;DHT22;30431;48.520;9.046;2023-11-19T15:45:42;13.90;93.00
44705;DHT22;30431;48.520;9.046;2023-11-19T15:48:09;13.80;93.20
44705;DHT22;30431;48.520;9.046;2023-11-19T15:50:42;13.80;93.20
44705;DHT22;30431;48.520;9.046;2023-11-19T15:53:13;13.70;93.50
44705;DHT22;30431;48.520;9.046;2023-11-19T15:55:40;13.60;93.60
44705;DHT22;30431;48.520;9.046;2023-11-19T15:58:12;13.50;93.80
44705;DHT22;30431;48.520;9.046;2023-11-19T16:00:39;13.40;94.10
44705;DHT22;30431;48.520;9.046;2023-11-19T16:03:15;13.30;94.20
44705;DHT22;30431;48.520;9.046;2023-11-19T16:05:43;13.20;94.40
44705;DHT22;30431;48.520;9.046;2023-11-19T16:08:10;13.10;94.50
44705;DHT22;30431;48.520;9.046;2023-11-19T16:10:38;13.10;94.50
44705;DHT22;30431;48.520;9.046;2023-11-19T16:13:13;13.10;94.80
44705;DHT22;30431;48.520;9.046;2023-11-19T16:15:40;13.10;94.60